Time;durP1;ratioP1;P1;durP2;ratioP2;P2;SDS_P1;SDS_P2;PMS_P1;PMS_P2;Temp;Humidity;BMP_temperature;BMP_pressure;BME280_temperature;BME280_humidity;BME280_pressure;Samples;Min_cycle;Max_cycle;Signal;HPM_P1;HPM_P2
2023/06/19 00:01:28;;;;;;;;;;;25.20;66.10;;;;;;6263977;28;19920;-79
2023/06/19 00:04:31;;;;;;;;;;;25.20;64.00;;;;;;6265638;28;19940;-79
2023/06/19 00:07:33;;;;;;;;;;;25.20;64.90;;;;;;6280041;28;20023;-79
2023/06/19 00:10:36;;;;;;;;;;;25.10;64.00;;;;;;6246756;28;20377;-79
2023/06/19 00:13:37;;;;;;;;;;;25.10;64.60;;;;;;6272866;28;20290;-78
2023/06/19 00:16:40;;;;;;;;;;;25.10;64.10;;;;;;6270565;28;20001;-79
2023/06/19 00:19:41;;;;;;;;;;;25.10;65.80;;;;;;6272865;28;19927;-78
2023/06/19 00:22:43;;;;;;;;;;;25.00;65.40;;;;;;6255256;28;19928;-79
2023/06/19 00:25:46;;;;;;;;;;;25.00;64.50;;;;;;6248131;28;19921;-79
2023/06/19 00:28:48;;;;;;;;;;;25.00;64.90;;;;;;6248563;28;19921;-78
2023/06/19 00:31:50;;;;;;;;;;;25.00;64.80;;;;;;6254630;28;19920;-78
2023/06/19 00:34:51;;;;;;;;;;;24.90;65.90;;;;;;6272375;28;19925;-78
2023/06/19 00:37:53;;;;;;;;;;;24.90;64.90;;;;;;6254510;28;19921;-77
2023/06/19 00:40:56;;;;;;;;;;;24.90;64.20;;;;;;6248679;28;19921;-78
2023/06/19 00:43:58;;;;;;;;;;;24.90;64.80;;;;;;6269708;28;20288;-78
2023/06/19 00:47:02;;;;;;;;;;;24.90;64.60;;;;;;6272409;28;19927;-78
2023/06/19 00:50:04;;;;;;;;;;;24.90;64.40;;;;;;6272358;28;19921;-78
2023/06/19 00:53:07;;;;;;;;;;;24.90;64.90;;;;;;6268234;28;19921;-78
2023/06/19 00:56:10;;;;;;;;;;;24.80;65.40;;;;;;6247356;28;20389;-77
2023/06/19 00:59:16;;;;;;;;;;;24.80;64.80;;;;;;6247498;28;20362;-77
2023/06/19 01:02:17;;;;;;;;;;;24.60;64.90;;;;;;6262142;28;20297;-77
2023/06/19 01:05:20;;;;;;;;;;;24.50;66.90;;;;;;6271315;28;19927;-77
2023/06/19 01:08:37;;;;;;;;;;;24.60;66.20;;;;;;6247426;28;20397;-77
2023/06/19 01:11:44;;;;;;;;;;;24.60;65.50;;;;;;6240016;28;19921;-78
2023/06/19 01:14:51;;;;;;;;;;;24.50;66.90;;;;;;6272102;28;19920;-77
2023/06/19 01:17:55;;;;;;;;;;;24.60;66.10;;;;;;6276287;28;20370;-77
2023/06/19 01:20:57;;;;;;;;;;;24.50;65.50;;;;;;6261653;28;19921;-78
2023/06/19 01:24:00;;;;;;;;;;;24.40;65.90;;;;;;6276303;28;19931;-77
2023/06/19 01:27:01;;;;;;;;;;;24.50;67.00;;;;;;6264519;28;19928;-78
2023/06/19 01:30:05;;;;;;;;;;;24.60;65.80;;;;;;6251638;28;19928;-78
2023/06/19 01:33:10;;;;;;;;;;;24.50;65.60;;;;;;6269321;28;19924;-78
2023/06/19 01:36:12;;;;;;;;;;;24.60;66.00;;;;;;6276132;28;19924;-79
2023/06/19 01:39:16;;;;;;;;;;;24.60;66.20;;;;;;6273790;28;19920;-78
2023/06/19 01:42:18;;;;;;;;;;;24.40;65.40;;;;;;6253885;28;19921;-78
2023/06/19 01:45:20;;;;;;;;;;;24.20;67.50;;;;;;6251158;28;19921;-79
2023/06/19 01:48:21;;;;;;;;;;;24.00;68.10;;;;;;6251074;28;19921;-79
2023/06/19 01:51:23;;;;;;;;;;;23.80;68.50;;;;;;6255908;28;19928;-78
2023/06/19 01:54:26;;;;;;;;;;;23.80;69.20;;;;;;6275666;28;19927;-78
2023/06/19 01:57:28;;;;;;;;;;;23.70;69.50;;;;;;6256250;28;19921;-78
2023/06/19 02:00:30;;;;;;;;;;;23.70;69.60;;;;;;6252314;28;19935;-78
2023/06/19 02:03:32;;;;;;;;;;;23.70;70.10;;;;;;6261302;28;19931;-78
2023/06/19 02:06:34;;;;;;;;;;;23.60;70.30;;;;;;6250354;28;19921;-78
2023/06/19 02:09:38;;;;;;;;;;;23.60;70.50;;;;;;6275183;28;20012;-78
2023/06/19 02:12:40;;;;;;;;;;;23.60;71.00;;;;;;6267877;28;20297;-78
2023/06/19 02:15:41;;;;;;;;;;;23.60;71.20;;;;;;6250355;28;20359;-78
2023/06/19 02:18:43;;;;;;;;;;;23.50;71.20;;;;;;6250198;28;19921;-78
2023/06/19 02:21:45;;;;;;;;;;;23.50;71.40;;;;;;6260354;28;19928;-78
2023/06/19 02:24:48;;;;;;;;;;;23.50;71.40;;;;;;6274821;28;19927;-78
2023/06/19 02:27:49;;;;;;;;;;;23.50;71.60;;;;;;6274317;28;20286;-78
2023/06/19 02:30:51;;;;;;;;;;;23.40;71.80;;;;;;6272362;28;19920;-78
2023/06/19 02:33:53;;;;;;;;;;;23.40;72.30;;;;;;6253364;28;19921;-78
2023/06/19 02:36:55;;;;;;;;;;;23.30;72.10;;;;;;6249753;28;19921;-78
2023/06/19 02:39:58;;;;;;;;;;;23.40;72.60;;;;;;6257927;28;19939;-79
2023/06/19 02:43:00;;;;;;;;;;;23.30;72.30;;;;;;6271032;28;19920;-78
2023/06/19 02:46:01;;;;;;;;;;;23.30;72.50;;;;;;6274235;28;19920;-78
2023/06/19 02:49:03;;;;;;;;;;;23.30;72.60;;;;;;6249978;28;19928;-78
2023/06/19 02:52:06;;;;;;;;;;;23.30;72.70;;;;;;6262816;28;19920;-78
2023/06/19 02:55:09;;;;;;;;;;;23.20;72.90;;;;;;6274291;28;19921;-79
2023/06/19 02:58:11;;;;;;;;;;;23.20;73.00;;;;;;6273845;28;20260;-78
2023/06/19 03:01:13;;;;;;;;;;;23.20;73.40;;;;;;6266506;28;19974;-78
2023/06/19 03:04:14;;;;;;;;;;;23.20;73.70;;;;;;6249255;28;19921;-79
2023/06/19 03:07:16;;;;;;;;;;;23.10;73.90;;;;;;6260043;28;19927;-78
2023/06/19 03:10:19;;;;;;;;;;;23.10;74.10;;;;;;6257405;28;19921;-80
2023/06/19 03:13:21;;;;;;;;;;;23.10;74.60;;;;;;6273200;28;20027;-79
2023/06/19 03:16:23;;;;;;;;;;;23.10;75.00;;;;;;6266987;28;19925;-78
2023/06/19 03:19:25;;;;;;;;;;;23.00;75.20;;;;;;6248911;28;20374;-78
2023/06/19 03:22:26;;;;;;;;;;;23.00;75.50;;;;;;6255562;28;19971;-78
2023/06/19 03:25:34;;;;;;;;;;;23.00;75.50;;;;;;6248742;28;19928;-78
2023/06/19 03:28:36;;;;;;;;;;;23.00;75.50;;;;;;6247092;28;19920;-78
2023/06/19 03:31:39;;;;;;;;;;;22.90;75.60;;;;;;6254981;28;20377;-78
2023/06/19 03:34:41;;;;;;;;;;;22.90;75.80;;;;;;6268921;28;19921;-78
2023/06/19 03:37:42;;;;;;;;;;;23.00;75.90;;;;;;6247951;28;19932;-78
2023/06/19 03:40:46;;;;;;;;;;;22.90;76.00;;;;;;6248696;28;19932;-78
2023/06/19 03:43:47;;;;;;;;;;;22.90;76.20;;;;;;6273071;28;20381;-81
2023/06/19 03:46:50;;;;;;;;;;;22.90;76.30;;;;;;6273042;28;20393;-81
2023/06/19 03:49:52;;;;;;;;;;;22.90;76.50;;;;;;6267781;28;19921;-78
2023/06/19 03:52:54;;;;;;;;;;;22.90;76.60;;;;;;6248124;28;19928;-76
2023/06/19 03:55:57;;;;;;;;;;;22.90;76.50;;;;;;6248068;28;19921;-80
2023/06/19 03:58:58;;;;;;;;;;;22.90;76.70;;;;;;6247459;28;19940;-80
2023/06/19 04:02:00;;;;;;;;;;;22.90;76.50;;;;;;6268875;28;20317;-80
2023/06/19 04:05:02;;;;;;;;;;;22.80;76.70;;;;;;6263985;28;19921;-80
2023/06/19 04:08:04;;;;;;;;;;;22.80;76.60;;;;;;6248460;28;19921;-78
2023/06/19 04:11:07;;;;;;;;;;;22.90;76.70;;;;;;6248843;28;19921;-77
2023/06/19 04:14:09;;;;;;;;;;;22.80;76.70;;;;;;6260256;28;19920;-78
2023/06/19 04:17:11;;;;;;;;;;;22.80;76.80;;;;;;6265169;28;20436;-78
2023/06/19 04:20:14;;;;;;;;;;;22.80;76.50;;;;;;6228300;28;20407;-80
2023/06/19 04:23:15;;;;;;;;;;;22.80;76.70;;;;;;6261295;28;19928;-79
2023/06/19 04:26:18;;;;;;;;;;;22.70;76.90;;;;;;6264320;28;19920;-78
2023/06/19 04:29:20;;;;;;;;;;;22.60;77.30;;;;;;6255114;28;19928;-78
2023/06/19 04:32:22;;;;;;;;;;;22.70;77.50;;;;;;6247825;28;20375;-78
2023/06/19 04:35:24;;;;;;;;;;;22.60;77.60;;;;;;6248092;28;19944;-78
2023/06/19 04:38:26;;;;;;;;;;;22.60;77.60;;;;;;6247839;28;19928;-78
2023/06/19 04:41:29;;;;;;;;;;;22.70;77.60;;;;;;6248083;28;19920;-78
2023/06/19 04:44:33;;;;;;;;;;;22.70;77.60;;;;;;6247223;28;19928;-78
2023/06/19 04:47:35;;;;;;;;;;;22.70;78.00;;;;;;6247882;28;19928;-78
2023/06/19 04:50:36;;;;;;;;;;;22.70;78.30;;;;;;6250853;28;19921;-77
2023/06/19 04:53:38;;;;;;;;;;;22.60;79.00;;;;;;6252360;28;19921;-77
2023/06/19 04:56:41;;;;;;;;;;;22.60;79.30;;;;;;6252361;28;19921;-77
2023/06/19 04:59:43;;;;;;;;;;;22.60;79.70;;;;;;6251797;28;19931;-77
2023/06/19 05:02:46;;;;;;;;;;;22.60;79.60;;;;;;6241397;28;19928;-78
2023/06/19 05:05:48;;;;;;;;;;;22.70;80.00;;;;;;6252013;28;19974;-78
2023/06/19 05:08:50;;;;;;;;;;;22.60;79.80;;;;;;6251770;28;19991;-77
2023/06/19 05:11:53;;;;;;;;;;;22.50;80.40;;;;;;6251575;28;19924;-77
2023/06/19 05:14:55;;;;;;;;;;;22.50;80.30;;;;;;6251971;28;19928;-77
2023/06/19 05:17:57;;;;;;;;;;;22.50;81.00;;;;;;6251715;28;19928;-77
2023/06/19 05:20:59;;;;;;;;;;;22.40;81.20;;;;;;6252092;28;20000;-77
2023/06/19 05:24:00;;;;;;;;;;;22.50;81.50;;;;;;6251289;28;19921;-77
2023/06/19 05:27:04;;;;;;;;;;;22.50;81.50;;;;;;6251466;28;19932;-77
2023/06/19 05:30:07;;;;;;;;;;;22.60;81.80;;;;;;6251558;28;19952;-77
2023/06/19 05:33:09;;;;;;;;;;;22.60;81.80;;;;;;6251320;28;19921;-76
2023/06/19 05:36:11;;;;;;;;;;;22.60;82.30;;;;;;6250920;28;19921;-78
2023/06/19 05:39:13;;;;;;;;;;;22.60;82.40;;;;;;6251233;28;19996;-79
2023/06/19 05:42:16;;;;;;;;;;;22.60;82.80;;;;;;6251268;28;19921;-79
2023/06/19 05:45:18;;;;;;;;;;;22.70;82.90;;;;;;6251100;28;20256;-78
2023/06/19 05:48:19;;;;;;;;;;;22.60;83.00;;;;;;6251269;28;19921;-78
2023/06/19 05:51:21;;;;;;;;;;;22.70;83.30;;;;;;6250967;28;19955;-78
2023/06/19 05:54:23;;;;;;;;;;;22.60;83.80;;;;;;6251172;28;19921;-78
2023/06/19 05:57:26;;;;;;;;;;;22.70;84.40;;;;;;6250709;28;19928;-77
2023/06/19 06:00:29;;;;;;;;;;;22.80;84.30;;;;;;6250169;28;19921;-78
2023/06/19 06:03:31;;;;;;;;;;;22.80;84.10;;;;;;6250477;28;19921;-78
2023/06/19 06:06:33;;;;;;;;;;;22.80;84.40;;;;;;6250702;28;20402;-78
2023/06/19 06:09:35;;;;;;;;;;;22.90;84.30;;;;;;6250448;28;20283;-78
2023/06/19 06:12:38;;;;;;;;;;;22.90;84.40;;;;;;6250299;28;19920;-78
2023/06/19 06:15:40;;;;;;;;;;;22.90;85.00;;;;;;6250504;28;20379;-78
2023/06/19 06:18:41;;;;;;;;;;;22.90;84.50;;;;;;6250044;28;19921;-78
2023/06/19 06:21:43;;;;;;;;;;;22.90;84.80;;;;;;6250220;28;20397;-77
2023/06/19 06:24:46;;;;;;;;;;;22.90;84.60;;;;;;6249939;28;20326;-79
2023/06/19 06:27:49;;;;;;;;;;;22.90;85.10;;;;;;6250178;28;19928;-78
2023/06/19 06:30:51;;;;;;;;;;;22.90;85.00;;;;;;6249726;28;19921;-78
2023/06/19 06:33:53;;;;;;;;;;;23.00;85.40;;;;;;6250131;28;19921;-79
2023/06/19 06:36:54;;;;;;;;;;;23.00;85.20;;;;;;6249972;28;19928;-78
2023/06/19 06:39:56;;;;;;;;;;;23.10;85.70;;;;;;6249825;28;19921;-79
2023/06/19 06:42:59;;;;;;;;;;;23.20;85.90;;;;;;6249216;28;20386;-78
2023/06/19 06:46:01;;;;;;;;;;;23.20;86.70;;;;;;6249481;28;19920;-79
2023/06/19 06:49:03;;;;;;;;;;;23.20;86.20;;;;;;6249697;28;20015;-78
2023/06/19 06:52:05;;;;;;;;;;;23.20;84.90;;;;;;6249532;28;19927;-79
2023/06/19 06:55:07;;;;;;;;;;;23.40;84.90;;;;;;6249440;28;19928;-78
2023/06/19 06:58:12;;;;;;;;;;;23.40;84.90;;;;;;6249416;28;19928;-80
2023/06/19 07:01:13;;;;;;;;;;;23.40;84.20;;;;;;6247881;28;19936;-79
2023/06/19 07:04:15;;;;;;;;;;;23.40;83.60;;;;;;6249277;28;19921;-80
2023/06/19 07:07:17;;;;;;;;;;;23.50;83.50;;;;;;6249343;28;19921;-81
2023/06/19 07:10:18;;;;;;;;;;;23.50;83.40;;;;;;6248934;28;19921;-72
2023/06/19 07:13:21;;;;;;;;;;;23.50;83.30;;;;;;6248215;28;19928;-73
2023/06/19 07:16:23;;;;;;;;;;;23.50;83.10;;;;;;6248808;28;20366;-72
2023/06/19 07:19:25;;;;;;;;;;;23.60;82.90;;;;;;6248605;28;19921;-72
2023/06/19 07:22:26;;;;;;;;;;;23.70;82.40;;;;;;6251773;28;19921;-72
2023/06/19 07:25:28;;;;;;;;;;;23.70;82.30;;;;;;6248652;28;19940;-72
2023/06/19 07:28:31;;;;;;;;;;;23.80;83.00;;;;;;6248745;28;19921;-73
2023/06/19 07:31:33;;;;;;;;;;;23.90;82.90;;;;;;6248598;28;19921;-72
2023/06/19 07:34:35;;;;;;;;;;;24.00;82.50;;;;;;6248267;28;19921;-72
2023/06/19 07:37:36;;;;;;;;;;;24.00;81.90;;;;;;6248471;28;20260;-72
2023/06/19 07:40:38;;;;;;;;;;;24.10;81.90;;;;;;6246509;28;19921;-72
2023/06/19 07:43:41;;;;;;;;;;;24.20;82.00;;;;;;6248009;28;19928;-72
2023/06/19 07:46:43;;;;;;;;;;;24.30;81.80;;;;;;6248112;28;19933;-72
2023/06/19 07:49:44;;;;;;;;;;;24.40;81.00;;;;;;6247931;28;20286;-72
2023/06/19 07:52:46;;;;;;;;;;;24.50;80.70;;;;;;6247942;28;19921;-73
2023/06/19 07:55:48;;;;;;;;;;;24.60;80.70;;;;;;6247680;28;19928;-73
2023/06/19 07:58:51;;;;;;;;;;;24.70;79.40;;;;;;6247112;28;19928;-72
2023/06/19 08:01:53;;;;;;;;;;;24.80;76.50;;;;;;6251847;28;19935;-73
2023/06/19 08:04:54;;;;;;;;;;;24.90;77.60;;;;;;6259440;28;19928;-72
2023/06/19 08:07:56;;;;;;;;;;;24.90;77.20;;;;;;6246052;28;19928;-71
2023/06/19 08:10:58;;;;;;;;;;;24.90;77.60;;;;;;6247261;28;20390;-72
2023/06/19 08:14:01;;;;;;;;;;;25.00;77.90;;;;;;6247702;28;19928;-72
2023/06/19 08:17:03;;;;;;;;;;;25.10;78.10;;;;;;6248013;28;19928;-72
2023/06/19 08:20:07;;;;;;;;;;;25.10;78.70;;;;;;6247797;28;19921;-72
2023/06/19 08:23:08;;;;;;;;;;;25.20;80.00;;;;;;6247983;28;19921;-72
2023/06/19 08:26:10;;;;;;;;;;;25.20;79.60;;;;;;6252924;28;19921;-73
2023/06/19 08:29:13;;;;;;;;;;;25.30;79.50;;;;;;6268426;28;20386;-73
2023/06/19 08:32:15;;;;;;;;;;;25.30;80.00;;;;;;6252671;28;19921;-71
2023/06/19 08:35:17;;;;;;;;;;;25.30;79.40;;;;;;6252687;28;19928;-71
2023/06/19 08:38:18;;;;;;;;;;;25.40;78.00;;;;;;6252541;28;19928;-71
2023/06/19 08:41:20;;;;;;;;;;;25.50;78.80;;;;;;6252677;28;19921;-72
2023/06/19 08:44:23;;;;;;;;;;;25.50;76.80;;;;;;6252177;28;20291;-72
2023/06/19 08:47:30;;;;;;;;;;;25.60;75.50;;;;;;6252278;28;19921;-72
2023/06/19 08:50:32;;;;;;;;;;;25.60;74.70;;;;;;6252466;28;19928;-72
2023/06/19 08:53:35;;;;;;;;;;;25.60;74.30;;;;;;6250137;28;19925;-71
2023/06/19 08:56:37;;;;;;;;;;;25.60;72.40;;;;;;6251616;28;19928;-72
2023/06/19 08:59:42;;;;;;;;;;;25.60;72.50;;;;;;6251711;28;20000;-72
2023/06/19 09:02:46;;;;;;;;;;;25.60;72.60;;;;;;6252786;28;19932;-72
2023/06/19 09:05:49;;;;;;;;;;;25.70;72.40;;;;;;6251306;28;19921;-72
2023/06/19 09:08:59;;;;;;;;;;;25.80;71.20;;;;;;6251741;28;19921;-72
2023/06/19 09:12:02;;;;;;;;;;;25.70;73.00;;;;;;6251080;28;19928;-73
2023/06/19 09:15:12;;;;;;;;;;;25.70;71.90;;;;;;6251148;28;20367;-72
2023/06/19 09:18:14;;;;;;;;;;;25.60;71.00;;;;;;6251393;28;20290;-72
2023/06/19 09:21:17;;;;;;;;;;;25.50;72.20;;;;;;6249698;28;19921;-72
2023/06/19 09:24:19;;;;;;;;;;;25.60;72.60;;;;;;6251947;28;19921;-72
2023/06/19 09:27:21;;;;;;;;;;;25.70;73.00;;;;;;6251448;28;19928;-72
2023/06/19 09:30:24;;;;;;;;;;;25.60;73.00;;;;;;6251306;28;19921;-72
2023/06/19 09:33:27;;;;;;;;;;;25.70;72.60;;;;;;6251397;28;20419;-75
2023/06/19 09:36:30;;;;;;;;;;;25.80;73.00;;;;;;6250037;28;19921;-72
2023/06/19 09:39:32;;;;;;;;;;;26.00;73.10;;;;;;6251186;28;20334;-72
2023/06/19 09:42:34;;;;;;;;;;;26.10;73.70;;;;;;6250860;28;20075;-73
2023/06/19 09:45:38;;;;;;;;;;;26.10;74.50;;;;;;6251146;28;19921;-73
2023/06/19 09:48:43;;;;;;;;;;;26.20;73.20;;;;;;6251082;28;19928;-78
2023/06/19 09:51:45;;;;;;;;;;;26.20;73.20;;;;;;6250710;28;19921;-80
2023/06/19 09:54:47;;;;;;;;;;;26.10;72.60;;;;;;6250958;28;19925;-80
2023/06/19 09:57:49;;;;;;;;;;;26.20;73.00;;;;;;6250745;28;20261;-80
2023/06/19 10:00:53;;;;;;;;;;;26.30;73.00;;;;;;6248312;28;19921;-79
2023/06/19 10:04:05;;;;;;;;;;;26.30;72.80;;;;;;6250371;28;19974;-80
2023/06/19 10:07:16;;;;;;;;;;;26.40;72.70;;;;;;6249885;28;20259;-80
2023/06/19 10:10:24;;;;;;;;;;;26.30;70.70;;;;;;6250035;28;19928;-80
2023/06/19 10:13:32;;;;;;;;;;;26.40;69.10;;;;;;6250165;28;19928;-80
2023/06/19 10:16:35;;;;;;;;;;;26.40;69.70;;;;;;6250066;28;19925;-80
2023/06/19 10:19:37;;;;;;;;;;;26.50;69.10;;;;;;6249580;28;19921;-80
2023/06/19 10:22:39;;;;;;;;;;;26.50;68.70;;;;;;6249826;28;19921;-79
2023/06/19 10:25:43;;;;;;;;;;;26.50;68.80;;;;;;6247628;28;19921;-80
2023/06/19 10:28:47;;;;;;;;;;;26.50;66.50;;;;;;6249782;28;19921;-79
2023/06/19 10:31:50;;;;;;;;;;;26.50;67.60;;;;;;6249200;28;20004;-80
2023/06/19 10:34:52;;;;;;;;;;;26.60;66.20;;;;;;6248845;28;19928;-79
2023/06/19 10:37:54;;;;;;;;;;;26.60;66.30;;;;;;6249618;28;20507;-80
2023/06/19 10:40:56;;;;;;;;;;;26.50;66.00;;;;;;6249193;28;20245;-79
2023/06/19 10:43:59;;;;;;;;;;;26.70;65.60;;;;;;6249129;28;19921;-80
2023/06/19 10:47:02;;;;;;;;;;;26.70;66.30;;;;;;6248641;28;19928;-79
2023/06/19 10:50:04;;;;;;;;;;;26.80;65.80;;;;;;6249196;28;19920;-79
2023/06/19 10:53:06;;;;;;;;;;;26.90;66.10;;;;;;6249078;28;19928;-79
2023/06/19 10:56:09;;;;;;;;;;;26.80;66.00;;;;;;6248768;28;20056;-79
2023/06/19 10:59:11;;;;;;;;;;;27.00;66.70;;;;;;6248817;28;19928;-79
2023/06/19 11:02:18;;;;;;;;;;;26.90;65.50;;;;;;6248330;28;20394;-78
2023/06/19 11:05:21;;;;;;;;;;;27.00;65.30;;;;;;6248871;28;19937;-79
2023/06/19 11:08:23;;;;;;;;;;;27.00;65.80;;;;;;6248486;28;19928;-78
2023/06/19 11:11:25;;;;;;;;;;;27.20;65.50;;;;;;6248586;28;20256;-78
2023/06/19 11:14:30;;;;;;;;;;;27.30;65.40;;;;;;6250616;28;19921;-78
2023/06/19 11:17:33;;;;;;;;;;;27.30;65.20;;;;;;6248053;28;19921;-79
2023/06/19 11:20:44;;;;;;;;;;;27.30;64.90;;;;;;6248427;28;20371;-79
2023/06/19 11:23:48;;;;;;;;;;;27.30;65.50;;;;;;6248371;28;19921;-79
2023/06/19 11:26:51;;;;;;;;;;;27.40;64.90;;;;;;6248217;28;20439;-78
2023/06/19 11:29:56;;;;;;;;;;;27.40;65.60;;;;;;6248240;28;19921;-78
2023/06/19 11:32:59;;;;;;;;;;;27.50;65.40;;;;;;6248375;28;19928;-79
2023/06/19 11:36:02;;;;;;;;;;;27.60;64.50;;;;;;6248503;28;19921;-79
2023/06/19 11:39:05;;;;;;;;;;;27.70;64.60;;;;;;6248480;28;20441;-78
2023/06/19 11:42:07;;;;;;;;;;;27.80;65.00;;;;;;6248656;28;20045;-79
2023/06/19 11:45:10;;;;;;;;;;;27.80;64.00;;;;;;6248202;28;19928;-78
2023/06/19 11:48:13;;;;;;;;;;;27.80;63.00;;;;;;6247900;28;19921;-78
2023/06/19 11:51:15;;;;;;;;;;;27.90;64.40;;;;;;6247983;28;19932;-77
2023/06/19 11:54:17;;;;;;;;;;;28.00;63.80;;;;;;6247475;28;19996;-78
2023/06/19 11:57:19;;;;;;;;;;;28.10;64.40;;;;;;6248011;28;20019;-77
2023/06/19 12:00:21;;;;;;;;;;;28.00;63.00;;;;;;6247299;28;19959;-77
2023/06/19 12:03:24;;;;;;;;;;;28.00;64.10;;;;;;6248199;28;19928;-78
2023/06/19 12:06:26;;;;;;;;;;;28.10;64.20;;;;;;6247798;28;19921;-77
2023/06/19 12:09:28;;;;;;;;;;;28.20;64.50;;;;;;6247509;28;19921;-77
2023/06/19 12:12:30;;;;;;;;;;;28.20;63.80;;;;;;6248106;28;19921;-80
2023/06/19 12:15:32;;;;;;;;;;;28.30;63.50;;;;;;6248472;28;19928;-79
2023/06/19 12:18:35;;;;;;;;;;;28.30;63.40;;;;;;6248376;28;19921;-79
2023/06/19 12:21:37;;;;;;;;;;;28.30;63.30;;;;;;6248085;28;19921;-79
2023/06/19 12:24:39;;;;;;;;;;;28.40;63.50;;;;;;6248056;28;20366;-78
2023/06/19 12:27:41;;;;;;;;;;;28.40;63.20;;;;;;6247597;28;19921;-76
2023/06/19 12:30:44;;;;;;;;;;;28.40;63.00;;;;;;6247857;28;20079;-78
2023/06/19 12:33:48;;;;;;;;;;;28.50;64.40;;;;;;6245486;28;20063;-77
2023/06/19 12:36:50;;;;;;;;;;;28.70;63.90;;;;;;6247107;28;19928;-77
2023/06/19 12:39:52;;;;;;;;;;;29.00;63.90;;;;;;6247783;28;19928;-76
2023/06/19 12:42:53;;;;;;;;;;;28.90;61.80;;;;;;6246943;28;20286;-76
2023/06/19 12:45:55;;;;;;;;;;;28.90;62.60;;;;;;6247352;28;20298;-77
2023/06/19 12:48:58;;;;;;;;;;;29.10;63.70;;;;;;6247199;28;19924;-76
2023/06/19 12:52:00;;;;;;;;;;;29.30;61.60;;;;;;6247045;28;19930;-77
2023/06/19 12:55:02;;;;;;;;;;;29.00;62.00;;;;;;6247177;28;19921;-77
2023/06/19 12:58:03;;;;;;;;;;;29.00;61.00;;;;;;6248142;28;20408;-77
2023/06/19 13:01:05;;;;;;;;;;;29.00;60.80;;;;;;6246736;28;19948;-77
2023/06/19 13:04:08;;;;;;;;;;;29.10;60.30;;;;;;6246979;28;19982;-77
2023/06/19 13:07:10;;;;;;;;;;;29.20;59.60;;;;;;6245950;28;19942;-76
2023/06/19 13:10:12;;;;;;;;;;;29.30;59.20;;;;;;6247404;28;19996;-76
2023/06/19 13:13:14;;;;;;;;;;;29.60;60.30;;;;;;6251257;28;19921;-77
2023/06/19 13:16:16;;;;;;;;;;;29.60;59.00;;;;;;6251329;28;19932;-76
2023/06/19 13:19:19;;;;;;;;;;;29.60;58.50;;;;;;6251125;28;19990;-77
2023/06/19 13:22:21;;;;;;;;;;;29.50;58.80;;;;;;6251447;28;19921;-77
2023/06/19 13:25:22;;;;;;;;;;;29.70;59.00;;;;;;6251069;28;19920;-77
2023/06/19 13:28:24;;;;;;;;;;;29.60;58.40;;;;;;6250854;28;19928;-76
2023/06/19 13:31:26;;;;;;;;;;;29.70;58.70;;;;;;6250484;28;20405;-77
2023/06/19 13:34:29;;;;;;;;;;;29.90;58.50;;;;;;6250208;28;19921;-77
2023/06/19 13:37:31;;;;;;;;;;;30.10;58.80;;;;;;6250625;28;19928;-77
2023/06/19 13:40:32;;;;;;;;;;;30.20;57.50;;;;;;6251117;28;19921;-77
2023/06/19 13:43:34;;;;;;;;;;;30.00;57.60;;;;;;6250625;28;19921;-78
2023/06/19 13:46:36;;;;;;;;;;;30.10;58.00;;;;;;6250722;28;19928;-81
2023/06/19 13:49:39;;;;;;;;;;;30.40;58.30;;;;;;6251337;28;19928;-77
2023/06/19 13:52:41;;;;;;;;;;;30.30;57.10;;;;;;6251035;28;19928;-77
2023/06/19 13:55:43;;;;;;;;;;;30.40;56.60;;;;;;6250937;28;19972;-78
2023/06/19 13:58:44;;;;;;;;;;;30.20;56.90;;;;;;6250628;28;19921;-78
2023/06/19 14:01:46;;;;;;;;;;;30.50;57.60;;;;;;6250599;28;19925;-82
2023/06/19 14:04:49;;;;;;;;;;;30.90;57.20;;;;;;6250013;28;20358;-78
2023/06/19 14:07:51;;;;;;;;;;;31.10;56.50;;;;;;6250273;28;19933;-77
2023/06/19 14:10:53;;;;;;;;;;;31.20;55.20;;;;;;6250391;28;20291;-77
2023/06/19 14:13:55;;;;;;;;;;;31.40;56.50;;;;;;6260630;28;19951;-78
2023/06/19 14:16:58;;;;;;;;;;;31.30;55.00;;;;;;6250323;28;20367;-78
2023/06/19 14:20:01;;;;;;;;;;;31.10;54.50;;;;;;6281844;28;19921;-79
2023/06/19 14:23:02;;;;;;;;;;;31.30;55.80;;;;;;6249930;28;20370;-84
2023/06/19 14:26:04;;;;;;;;;;;31.10;54.80;;;;;;6250128;28;20371;-80
2023/06/19 14:29:08;;;;;;;;;;;31.00;54.50;;;;;;6249915;28;20298;-80
2023/06/19 14:32:09;;;;;;;;;;;31.10;54.80;;;;;;6249677;28;20018;-80
2023/06/19 14:35:12;;;;;;;;;;;30.90;54.40;;;;;;6250167;28;19943;-80
2023/06/19 14:38:14;;;;;;;;;;;30.90;54.20;;;;;;6249948;28;19921;-80
2023/06/19 14:41:16;;;;;;;;;;;30.90;54.50;;;;;;6249616;28;19928;-79
2023/06/19 14:44:17;;;;;;;;;;;31.00;54.00;;;;;;6249502;28;19928;-80
2023/06/19 14:47:19;;;;;;;;;;;31.20;55.50;;;;;;6249395;28;19932;-79
2023/06/19 14:50:22;;;;;;;;;;;31.40;54.30;;;;;;6249641;28;19921;-80
2023/06/19 14:53:24;;;;;;;;;;;31.50;54.60;;;;;;6249330;28;20346;-80
2023/06/19 14:56:26;;;;;;;;;;;31.30;53.80;;;;;;6242017;28;20039;-80
2023/06/19 14:59:28;;;;;;;;;;;31.20;54.50;;;;;;6268151;28;20091;-80
2023/06/19 15:02:29;;;;;;;;;;;31.10;54.80;;;;;;6271127;28;19928;-80
2023/06/19 15:05:32;;;;;;;;;;;31.20;54.60;;;;;;6266120;28;19928;-81
2023/06/19 15:08:37;;;;;;;;;;;31.20;54.70;;;;;;6255375;28;19932;-80
2023/06/19 15:11:39;;;;;;;;;;;31.00;53.80;;;;;;6245923;28;20260;-80
2023/06/19 15:14:41;;;;;;;;;;;31.10;54.80;;;;;;6245317;28;20268;-81
2023/06/19 15:17:42;;;;;;;;;;;31.20;54.50;;;;;;6252001;28;19925;-80
2023/06/19 15:20:46;;;;;;;;;;;31.20;54.90;;;;;;6245310;28;19921;-80
2023/06/19 15:23:48;;;;;;;;;;;31.10;54.70;;;;;;6245644;28;19936;-79
2023/06/19 15:26:51;;;;;;;;;;;31.00;54.90;;;;;;6245155;28;19921;-80
2023/06/19 15:29:52;;;;;;;;;;;31.00;55.30;;;;;;6247710;28;19947;-79
2023/06/19 15:32:54;;;;;;;;;;;30.90;55.40;;;;;;6244504;28;20304;-79
2023/06/19 15:35:57;;;;;;;;;;;30.80;55.10;;;;;;6245123;28;19932;-80
2023/06/19 15:38:59;;;;;;;;;;;30.70;56.00;;;;;;6247183;28;19925;-80
2023/06/19 15:42:00;;;;;;;;;;;30.60;56.40;;;;;;6249465;28;20071;-80
2023/06/19 15:45:02;;;;;;;;;;;30.50;56.30;;;;;;6243662;28;20298;-79
2023/06/19 15:48:04;;;;;;;;;;;30.30;55.30;;;;;;6254448;28;20366;-73
2023/06/19 15:51:08;;;;;;;;;;;30.40;56.70;;;;;;6270153;28;19931;-72
2023/06/19 15:54:09;;;;;;;;;;;30.40;56.40;;;;;;6270138;28;19947;-76
2023/06/19 15:57:12;;;;;;;;;;;30.40;57.00;;;;;;6247874;28;19921;-78
2023/06/19 16:00:15;;;;;;;;;;;30.30;56.60;;;;;;6238544;28;20295;-79
2023/06/19 16:03:16;;;;;;;;;;;30.30;56.50;;;;;;6240613;28;19925;-79
2023/06/19 16:06:19;;;;;;;;;;;30.20;56.10;;;;;;6235772;28;20375;-79
2023/06/19 16:09:21;;;;;;;;;;;29.90;59.20;;;;;;6245669;28;19924;-77
2023/06/19 16:12:23;;;;;;;;;;;29.60;62.00;;;;;;6245387;28;19929;-78
2023/06/19 16:15:27;;;;;;;;;;;29.30;62.90;;;;;;6266866;28;19929;-78
2023/06/19 16:18:29;;;;;;;;;;;29.10;63.80;;;;;;6257775;28;19921;-78
2023/06/19 16:21:32;;;;;;;;;;;29.00;66.20;;;;;;6244808;28;19924;-78
2023/06/19 16:24:34;;;;;;;;;;;28.90;66.90;;;;;;6244605;28;19932;-78
2023/06/19 16:27:36;;;;;;;;;;;29.20;68.00;;;;;;6243617;28;20367;-78
2023/06/19 16:30:38;;;;;;;;;;;29.20;69.70;;;;;;6267241;28;19928;-78
2023/06/19 16:33:39;;;;;;;;;;;29.20;69.50;;;;;;6247655;28;19947;-78
2023/06/19 16:36:42;;;;;;;;;;;29.20;68.50;;;;;;6244333;28;20007;-78
2023/06/19 16:39:44;;;;;;;;;;;28.90;71.40;;;;;;6259610;28;19924;-78
2023/06/19 16:42:46;;;;;;;;;;;28.80;73.10;;;;;;6269294;28;19925;-78
2023/06/19 16:45:47;;;;;;;;;;;28.80;73.70;;;;;;6270973;28;19920;-78
2023/06/19 16:48:49;;;;;;;;;;;28.60;73.20;;;;;;6264582;28;19932;-78
2023/06/19 16:51:52;;;;;;;;;;;28.60;73.50;;;;;;6261827;28;19936;-78
2023/06/19 16:54:54;;;;;;;;;;;28.40;74.10;;;;;;6268917;28;20294;-77
2023/06/19 16:57:56;;;;;;;;;;;28.30;75.10;;;;;;6268359;28;19944;-77
2023/06/19 17:00:57;;;;;;;;;;;28.40;76.50;;;;;;6273729;28;19928;-78
2023/06/19 17:03:59;;;;;;;;;;;28.40;75.80;;;;;;6252772;28;19928;-78
2023/06/19 17:07:02;;;;;;;;;;;28.30;75.40;;;;;;6257492;28;19932;-77
2023/06/19 17:10:04;;;;;;;;;;;28.20;76.80;;;;;;6251938;28;19948;-78
2023/06/19 17:13:06;;;;;;;;;;;27.80;75.90;;;;;;6248733;28;19932;-77
2023/06/19 17:16:08;;;;;;;;;;;27.90;77.40;;;;;;6248647;28;19939;-77
2023/06/19 17:19:10;;;;;;;;;;;28.20;77.50;;;;;;6259711;28;19927;-77
2023/06/19 17:22:13;;;;;;;;;;;28.20;75.90;;;;;;6272999;28;19921;-77
2023/06/19 17:25:15;;;;;;;;;;;28.00;76.10;;;;;;6223821;28;19933;-77
2023/06/19 17:28:16;;;;;;;;;;;27.90;76.90;;;;;;6258656;28;19947;-77
2023/06/19 17:31:18;;;;;;;;;;;28.20;76.80;;;;;;6272874;28;19940;-82
2023/06/19 17:34:20;;;;;;;;;;;28.40;77.70;;;;;;6272675;28;20297;-81
2023/06/19 17:37:23;;;;;;;;;;;28.30;76.00;;;;;;6273043;28;19925;-78
2023/06/19 17:40:25;;;;;;;;;;;28.30;76.40;;;;;;6266678;28;19920;-81